sensor_id;sensor_type;location;lat;lon;timestamp;temperature;humidity
16958;DHT22;8595;52.542;11.974;2023-02-28T00:00:47;0.70;99.90
16958;DHT22;8595;52.542;11.974;2023-02-28T00:03:14;0.90;99.90
16958;DHT22;8595;52.542;11.974;2023-02-28T00:05:42;0.80;99.90
16958;DHT22;8595;52.542;11.974;2023-02-28T00:08:09;0.80;99.90
16958;DHT22;8595;52.542;11.974;2023-02-28T00:10:36;0.80;99.90
16958;DHT22;8595;52.542;11.974;2023-02-28T00:13:04;0.80;99.90
16958;DHT22;8595;52.542;11.974;2023-02-28T00:15:31;0.90;99.90
16958;DHT22;8595;52.542;11.974;2023-02-28T00:17:58;0.90;99.90
16958;DHT22;8595;52.542;11.974;2023-02-28T00:20:25;0.90;99.90
16958;DHT22;8595;52.542;11.974;2023-02-28T00:22:54;0.80;99.90
16958;DHT22;8595;52.542;11.974;2023-02-28T00:25:23;0.90;99.90
16958;DHT22;8595;52.542;11.974;2023-02-28T00:27:52;0.70;99.90
16958;DHT22;8595;52.542;11.974;2023-02-28T00:30:20;0.60;99.90
16958;DHT22;8595;52.542;11.974;2023-02-28T00:32:48;0.60;99.90
16958;DHT22;8595;52.542;11.974;2023-02-28T00:35:15;0.50;99.90
16958;DHT22;8595;52.542;11.974;2023-02-28T00:37:42;0.40;99.90
16958;DHT22;8595;52.542;11.974;2023-02-28T00:40:11;0.40;99.90
16958;DHT22;8595;52.542;11.974;2023-02-28T00:42:38;0.40;99.90
16958;DHT22;8595;52.542;11.974;2023-02-28T00:45:06;0.50;99.90
16958;DHT22;8595;52.542;11.974;2023-02-28T00:47:34;0.60;99.90
16958;DHT22;8595;52.542;11.974;2023-02-28T00:50:01;0.70;99.90
16958;DHT22;8595;52.542;11.974;2023-02-28T00:52:28;0.80;99.90
16958;DHT22;8595;52.542;11.974;2023-02-28T00:54:55;0.80;99.90
16958;DHT22;8595;52.542;11.974;2023-02-28T00:57:23;0.80;99.90
16958;DHT22;8595;52.542;11.974;2023-02-28T00:59:50;0.80;99.90
16958;DHT22;8595;52.542;11.974;2023-02-28T01:02:19;0.60;99.90
16958;DHT22;8595;52.542;11.974;2023-02-28T01:04:46;0.60;99.90
16958;DHT22;8595;52.542;11.974;2023-02-28T01:07:13;0.60;99.90
16958;DHT22;8595;52.542;11.974;2023-02-28T01:09:40;0.50;99.90
16958;DHT22;8595;52.542;11.974;2023-02-28T01:12:07;0.50;99.90
16958;DHT22;8595;52.542;11.974;2023-02-28T01:14:36;0.50;99.90
16958;DHT22;8595;52.542;11.974;2023-02-28T01:17:03;0.40;99.90
16958;DHT22;8595;52.542;11.974;2023-02-28T01:19:30;0.30;99.90
16958;DHT22;8595;52.542;11.974;2023-02-28T01:21:56;0.30;99.90
16958;DHT22;8595;52.542;11.974;2023-02-28T01:24:23;0.40;99.90
16958;DHT22;8595;52.542;11.974;2023-02-28T01:26:50;0.20;99.90
16958;DHT22;8595;52.542;11.974;2023-02-28T01:29:16;0.20;99.90
16958;DHT22;8595;52.542;11.974;2023-02-28T01:31:44;0.10;99.90
16958;DHT22;8595;52.542;11.974;2023-02-28T01:34:11;0.20;99.90
16958;DHT22;8595;52.542;11.974;2023-02-28T01:36:38;0.30;99.90
16958;DHT22;8595;52.542;11.974;2023-02-28T01:39:05;0.30;99.90
16958;DHT22;8595;52.542;11.974;2023-02-28T01:41:34;0.40;99.90
16958;DHT22;8595;52.542;11.974;2023-02-28T01:44:05;0.40;99.90
16958;DHT22;8595;52.542;11.974;2023-02-28T01:46:34;0.40;99.90
16958;DHT22;8595;52.542;11.974;2023-02-28T01:49:08;0.50;99.90
16958;DHT22;8595;52.542;11.974;2023-02-28T01:51:41;0.40;99.90
16958;DHT22;8595;52.542;11.974;2023-02-28T01:54:13;0.50;99.90
16958;DHT22;8595;52.542;11.974;2023-02-28T01:56:45;0.50;99.90
16958;DHT22;8595;52.542;11.974;2023-02-28T01:59:14;0.50;99.90
16958;DHT22;8595;52.542;11.974;2023-02-28T02:01:44;0.50;99.90
16958;DHT22;8595;52.542;11.974;2023-02-28T02:04:13;0.40;99.90
16958;DHT22;8595;52.542;11.974;2023-02-28T02:06:43;0.40;99.90
16958;DHT22;8595;52.542;11.974;2023-02-28T02:09:10;0.20;99.90
16958;DHT22;8595;52.542;11.974;2023-02-28T02:11:37;0.20;99.90
16958;DHT22;8595;52.542;11.974;2023-02-28T02:14:32;0.20;99.90
16958;DHT22;8595;52.542;11.974;2023-02-28T02:17:20;0.10;99.90
16958;DHT22;8595;52.542;11.974;2023-02-28T02:20:16;0.10;99.90
16958;DHT22;8595;52.542;11.974;2023-02-28T02:25:53;-0.20;99.90
16958;DHT22;8595;52.542;11.974;2023-02-28T02:28:46;-0.30;99.90
16958;DHT22;8595;52.542;11.974;2023-02-28T02:31:33;-0.30;99.90
16958;DHT22;8595;52.542;11.974;2023-02-28T02:34:27;-0.30;99.90
16958;DHT22;8595;52.542;11.974;2023-02-28T02:37:01;-0.40;99.90
16958;DHT22;8595;52.542;11.974;2023-02-28T02:39:38;-0.40;99.90
16958;DHT22;8595;52.542;11.974;2023-02-28T02:42:12;-0.40;99.90
16958;DHT22;8595;52.542;11.974;2023-02-28T02:44:45;-0.50;99.90
16958;DHT22;8595;52.542;11.974;2023-02-28T02:47:15;-0.60;99.90
16958;DHT22;8595;52.542;11.974;2023-02-28T02:49:48;-0.60;99.90
16958;DHT22;8595;52.542;11.974;2023-02-28T02:52:22;-0.70;99.90
16958;DHT22;8595;52.542;11.974;2023-02-28T02:54:53;-0.70;99.90
16958;DHT22;8595;52.542;11.974;2023-02-28T02:57:23;-0.70;99.90
16958;DHT22;8595;52.542;11.974;2023-02-28T02:59:53;-0.60;99.90
16958;DHT22;8595;52.542;11.974;2023-02-28T03:02:21;-0.50;99.90
16958;DHT22;8595;52.542;11.974;2023-02-28T03:04:52;-0.40;99.90
16958;DHT22;8595;52.542;11.974;2023-02-28T03:07:20;-0.30;99.90
16958;DHT22;8595;52.542;11.974;2023-02-28T03:09:51;-0.10;99.90
16958;DHT22;8595;52.542;11.974;2023-02-28T03:12:20;-0.10;99.90
16958;DHT22;8595;52.542;11.974;2023-02-28T03:14:55;-0.10;99.90
16958;DHT22;8595;52.542;11.974;2023-02-28T03:17:47;0.00;99.90
16958;DHT22;8595;52.542;11.974;2023-02-28T03:20:27;0.00;99.90
16958;DHT22;8595;52.542;11.974;2023-02-28T03:23:07;0.10;99.90
16958;DHT22;8595;52.542;11.974;2023-02-28T03:25:47;0.10;99.90
16958;DHT22;8595;52.542;11.974;2023-02-28T03:28:22;0.00;99.90
16958;DHT22;8595;52.542;11.974;2023-02-28T03:30:52;0.10;99.90
16958;DHT22;8595;52.542;11.974;2023-02-28T03:33:23;0.00;99.90
16958;DHT22;8595;52.542;11.974;2023-02-28T03:35:56;0.10;99.90
16958;DHT22;8595;52.542;11.974;2023-02-28T03:38:28;0.00;99.90
16958;DHT22;8595;52.542;11.974;2023-02-28T03:41:01;-0.10;99.90
16958;DHT22;8595;52.542;11.974;2023-02-28T03:43:33;-0.20;99.90
16958;DHT22;8595;52.542;11.974;2023-02-28T03:46:07;-0.30;99.90
16958;DHT22;8595;52.542;11.974;2023-02-28T03:48:38;-0.30;99.90
16958;DHT22;8595;52.542;11.974;2023-02-28T03:51:12;-0.30;99.90
16958;DHT22;8595;52.542;11.974;2023-02-28T03:53:45;-0.50;99.90
16958;DHT22;8595;52.542;11.974;2023-02-28T03:56:16;-0.40;99.90
16958;DHT22;8595;52.542;11.974;2023-02-28T03:58:49;-0.50;99.90
16958;DHT22;8595;52.542;11.974;2023-02-28T04:01:21;-0.50;99.90
16958;DHT22;8595;52.542;11.974;2023-02-28T04:03:49;-0.60;99.90
16958;DHT22;8595;52.542;11.974;2023-02-28T04:06:21;-0.60;99.90
16958;DHT22;8595;52.542;11.974;2023-02-28T04:08:48;-0.60;99.90
16958;DHT22;8595;52.542;11.974;2023-02-28T04:11:20;-0.50;99.90
16958;DHT22;8595;52.542;11.974;2023-02-28T04:13:48;-0.50;99.90
16958;DHT22;8595;52.542;11.974;2023-02-28T04:16:14;-0.50;99.90
16958;DHT22;8595;52.542;11.974;2023-02-28T04:18:42;-0.60;99.90
16958;DHT22;8595;52.542;11.974;2023-02-28T04:21:11;-0.70;99.90
16958;DHT22;8595;52.542;11.974;2023-02-28T04:23:39;-0.70;99.90
16958;DHT22;8595;52.542;11.974;2023-02-28T04:26:07;-0.70;99.90
16958;DHT22;8595;52.542;11.974;2023-02-28T04:28:33;-0.80;99.90
16958;DHT22;8595;52.542;11.974;2023-02-28T04:31:02;-0.80;99.90
16958;DHT22;8595;52.542;11.974;2023-02-28T04:33:31;-0.80;99.90
16958;DHT22;8595;52.542;11.974;2023-02-28T04:35:59;-0.80;99.90
16958;DHT22;8595;52.542;11.974;2023-02-28T04:38:27;-0.80;99.90
16958;DHT22;8595;52.542;11.974;2023-02-28T04:40:57;-0.70;99.90
16958;DHT22;8595;52.542;11.974;2023-02-28T04:43:23;-0.70;99.90
16958;DHT22;8595;52.542;11.974;2023-02-28T04:45:50;-0.60;99.90
16958;DHT22;8595;52.542;11.974;2023-02-28T04:48:17;-0.60;99.90
16958;DHT22;8595;52.542;11.974;2023-02-28T04:50:45;-0.50;99.90
16958;DHT22;8595;52.542;11.974;2023-02-28T04:53:12;-0.50;99.90
16958;DHT22;8595;52.542;11.974;2023-02-28T04:55:38;-0.50;99.90
16958;DHT22;8595;52.542;11.974;2023-02-28T04:58:08;-0.40;99.90
16958;DHT22;8595;52.542;11.974;2023-02-28T05:00:35;-0.50;99.90
16958;DHT22;8595;52.542;11.974;2023-02-28T05:03:02;-0.40;99.90
16958;DHT22;8595;52.542;11.974;2023-02-28T05:05:29;-0.40;99.90
16958;DHT22;8595;52.542;11.974;2023-02-28T05:07:56;-0.30;99.90
16958;DHT22;8595;52.542;11.974;2023-02-28T05:10:23;-0.30;99.90
16958;DHT22;8595;52.542;11.974;2023-02-28T05:12:50;-0.50;99.90
16958;DHT22;8595;52.542;11.974;2023-02-28T05:15:18;-0.60;99.90
16958;DHT22;8595;52.542;11.974;2023-02-28T05:17:45;-0.50;99.90
16958;DHT22;8595;52.542;11.974;2023-02-28T05:20:13;-0.50;99.90
16958;DHT22;8595;52.542;11.974;2023-02-28T05:22:41;-0.50;99.90
16958;DHT22;8595;52.542;11.974;2023-02-28T05:25:11;-0.40;99.90
16958;DHT22;8595;52.542;11.974;2023-02-28T05:27:39;-0.30;99.90
16958;DHT22;8595;52.542;11.974;2023-02-28T05:30:07;-0.30;99.90
16958;DHT22;8595;52.542;11.974;2023-02-28T05:32:37;-0.20;99.90
16958;DHT22;8595;52.542;11.974;2023-02-28T05:35:04;-0.30;99.90
16958;DHT22;8595;52.542;11.974;2023-02-28T05:37:31;-0.20;99.90
16958;DHT22;8595;52.542;11.974;2023-02-28T05:39:58;-0.30;99.90
16958;DHT22;8595;52.542;11.974;2023-02-28T05:42:25;-0.30;99.90
16958;DHT22;8595;52.542;11.974;2023-02-28T05:44:52;-0.20;99.90
16958;DHT22;8595;52.542;11.974;2023-02-28T05:47:19;-0.30;99.90
16958;DHT22;8595;52.542;11.974;2023-02-28T05:49:50;-0.30;99.90
16958;DHT22;8595;52.542;11.974;2023-02-28T05:52:17;-0.30;99.90
16958;DHT22;8595;52.542;11.974;2023-02-28T05:54:43;-0.40;99.90
16958;DHT22;8595;52.542;11.974;2023-02-28T05:57:10;-0.30;99.90
16958;DHT22;8595;52.542;11.974;2023-02-28T05:59:37;-0.30;99.90
16958;DHT22;8595;52.542;11.974;2023-02-28T06:02:05;-0.40;99.90
16958;DHT22;8595;52.542;11.974;2023-02-28T06:04:32;-0.20;99.90
16958;DHT22;8595;52.542;11.974;2023-02-28T06:07:01;-0.40;99.90
16958;DHT22;8595;52.542;11.974;2023-02-28T06:09:28;-0.50;99.90
16958;DHT22;8595;52.542;11.974;2023-02-28T06:11:57;-0.50;99.90
16958;DHT22;8595;52.542;11.974;2023-02-28T06:14:24;-0.50;99.90
16958;DHT22;8595;52.542;11.974;2023-02-28T06:16:51;-0.50;99.90
16958;DHT22;8595;52.542;11.974;2023-02-28T06:19:18;-0.50;99.90
16958;DHT22;8595;52.542;11.974;2023-02-28T06:21:45;-0.50;99.90
16958;DHT22;8595;52.542;11.974;2023-02-28T06:24:17;-0.40;99.90
16958;DHT22;8595;52.542;11.974;2023-02-28T06:26:44;-0.40;99.90
16958;DHT22;8595;52.542;11.974;2023-02-28T06:29:12;-0.40;99.90
16958;DHT22;8595;52.542;11.974;2023-02-28T06:31:43;-0.40;99.90
16958;DHT22;8595;52.542;11.974;2023-02-28T06:34:12;-0.30;99.90
16958;DHT22;8595;52.542;11.974;2023-02-28T06:36:39;-0.30;99.90
16958;DHT22;8595;52.542;11.974;2023-02-28T06:39:07;-0.30;99.90
16958;DHT22;8595;52.542;11.974;2023-02-28T06:41:38;-0.20;99.90
16958;DHT22;8595;52.542;11.974;2023-02-28T06:44:10;-0.10;99.90
16958;DHT22;8595;52.542;11.974;2023-02-28T06:46:38;-0.20;99.90
16958;DHT22;8595;52.542;11.974;2023-02-28T06:49:05;-0.30;99.90
16958;DHT22;8595;52.542;11.974;2023-02-28T06:51:35;-0.30;99.90
16958;DHT22;8595;52.542;11.974;2023-02-28T06:54:05;-0.30;99.90
16958;DHT22;8595;52.542;11.974;2023-02-28T06:56:36;-0.10;99.90
16958;DHT22;8595;52.542;11.974;2023-02-28T06:59:03;-0.20;99.90
16958;DHT22;8595;52.542;11.974;2023-02-28T07:01:30;-0.20;99.90
16958;DHT22;8595;52.542;11.974;2023-02-28T07:03:58;-0.10;99.90
16958;DHT22;8595;52.542;11.974;2023-02-28T07:06:26;-0.10;99.90
16958;DHT22;8595;52.542;11.974;2023-02-28T07:08:54;-0.20;99.90
16958;DHT22;8595;52.542;11.974;2023-02-28T07:11:21;-0.10;99.90
16958;DHT22;8595;52.542;11.974;2023-02-28T07:13:55;-0.20;99.90
16958;DHT22;8595;52.542;11.974;2023-02-28T07:16:25;-0.10;99.90
16958;DHT22;8595;52.542;11.974;2023-02-28T07:18:52;-0.20;99.90
16958;DHT22;8595;52.542;11.974;2023-02-28T07:21:21;-0.10;99.90
16958;DHT22;8595;52.542;11.974;2023-02-28T07:23:48;0.00;99.90
16958;DHT22;8595;52.542;11.974;2023-02-28T07:26:16;0.90;99.90
16958;DHT22;8595;52.542;11.974;2023-02-28T07:28:45;2.10;99.90
16958;DHT22;8595;52.542;11.974;2023-02-28T07:31:13;3.20;99.90
16958;DHT22;8595;52.542;11.974;2023-02-28T07:33:43;4.10;99.90
16958;DHT22;8595;52.542;11.974;2023-02-28T07:36:13;4.60;99.90
16958;DHT22;8595;52.542;11.974;2023-02-28T07:38:41;5.20;99.90
16958;DHT22;8595;52.542;11.974;2023-02-28T07:41:09;5.70;99.90
16958;DHT22;8595;52.542;11.974;2023-02-28T07:43:37;6.00;99.90
16958;DHT22;8595;52.542;11.974;2023-02-28T07:46:06;6.20;99.90
16958;DHT22;8595;52.542;11.974;2023-02-28T07:48:34;5.70;99.90
16958;DHT22;8595;52.542;11.974;2023-02-28T07:51:01;5.10;99.90
16958;DHT22;8595;52.542;11.974;2023-02-28T07:53:31;5.20;99.90
16958;DHT22;8595;52.542;11.974;2023-02-28T07:55:59;5.70;99.90
16958;DHT22;8595;52.542;11.974;2023-02-28T07:58:27;6.30;99.90
16958;DHT22;8595;52.542;11.974;2023-02-28T08:00:54;6.90;99.90
16958;DHT22;8595;52.542;11.974;2023-02-28T08:03:23;7.20;99.90
16958;DHT22;8595;52.542;11.974;2023-02-28T08:05:51;7.40;99.90
16958;DHT22;8595;52.542;11.974;2023-02-28T08:08:22;7.70;99.90
16958;DHT22;8595;52.542;11.974;2023-02-28T08:10:49;8.10;99.90
16958;DHT22;8595;52.542;11.974;2023-02-28T08:13:18;8.40;99.90
16958;DHT22;8595;52.542;11.974;2023-02-28T08:15:45;8.60;99.90
16958;DHT22;8595;52.542;11.974;2023-02-28T08:18:12;8.70;99.90
16958;DHT22;8595;52.542;11.974;2023-02-28T08:20:39;8.60;99.90
16958;DHT22;8595;52.542;11.974;2023-02-28T08:23:07;8.70;99.90
16958;DHT22;8595;52.542;11.974;2023-02-28T08:25:34;8.50;99.90
16958;DHT22;8595;52.542;11.974;2023-02-28T08:28:01;8.70;99.90
16958;DHT22;8595;52.542;11.974;2023-02-28T08:30:28;8.80;99.90
16958;DHT22;8595;52.542;11.974;2023-02-28T08:32:54;8.40;99.90
16958;DHT22;8595;52.542;11.974;2023-02-28T08:35:23;7.70;99.90
16958;DHT22;8595;52.542;11.974;2023-02-28T08:37:50;7.30;99.90
16958;DHT22;8595;52.542;11.974;2023-02-28T08:40:18;7.50;99.90
16958;DHT22;8595;52.542;11.974;2023-02-28T08:42:45;7.70;99.90
16958;DHT22;8595;52.542;11.974;2023-02-28T08:45:14;8.10;99.90
16958;DHT22;8595;52.542;11.974;2023-02-28T08:47:41;8.70;99.90
16958;DHT22;8595;52.542;11.974;2023-02-28T08:50:09;9.00;99.90
16958;DHT22;8595;52.542;11.974;2023-02-28T08:52:35;8.60;99.90
16958;DHT22;8595;52.542;11.974;2023-02-28T08:55:04;8.80;99.90
16958;DHT22;8595;52.542;11.974;2023-02-28T08:57:32;9.40;99.90
16958;DHT22;8595;52.542;11.974;2023-02-28T08:59:59;9.80;99.90
16958;DHT22;8595;52.542;11.974;2023-02-28T09:02:27;9.90;99.90
16958;DHT22;8595;52.542;11.974;2023-02-28T09:04:54;10.20;99.90
16958;DHT22;8595;52.542;11.974;2023-02-28T09:07:20;10.40;99.90
16958;DHT22;8595;52.542;11.974;2023-02-28T09:09:49;10.60;99.90
16958;DHT22;8595;52.542;11.974;2023-02-28T09:12:25;10.70;99.90
16958;DHT22;8595;52.542;11.974;2023-02-28T09:14:54;11.10;99.90
16958;DHT22;8595;52.542;11.974;2023-02-28T09:17:20;11.30;99.90
16958;DHT22;8595;52.542;11.974;2023-02-28T09:19:48;11.50;99.90
16958;DHT22;8595;52.542;11.974;2023-02-28T09:22:16;11.30;99.90
16958;DHT22;8595;52.542;11.974;2023-02-28T09:24:42;11.50;99.90
16958;DHT22;8595;52.542;11.974;2023-02-28T09:27:10;11.70;99.90
16958;DHT22;8595;52.542;11.974;2023-02-28T09:29:37;11.90;99.90
16958;DHT22;8595;52.542;11.974;2023-02-28T09:32:05;11.80;99.90
16958;DHT22;8595;52.542;11.974;2023-02-28T09:34:32;12.30;99.90
16958;DHT22;8595;52.542;11.974;2023-02-28T09:36:59;12.50;99.90
16958;DHT22;8595;52.542;11.974;2023-02-28T09:39:26;12.70;99.90
16958;DHT22;8595;52.542;11.974;2023-02-28T09:41:55;12.60;99.90
16958;DHT22;8595;52.542;11.974;2023-02-28T09:44:26;12.70;99.90
16958;DHT22;8595;52.542;11.974;2023-02-28T09:46:57;12.70;99.90
16958;DHT22;8595;52.542;11.974;2023-02-28T09:49:33;12.90;99.90
16958;DHT22;8595;52.542;11.974;2023-02-28T09:52:03;13.40;99.90
16958;DHT22;8595;52.542;11.974;2023-02-28T09:54:32;13.90;99.90
16958;DHT22;8595;52.542;11.974;2023-02-28T09:57:04;14.20;99.90
16958;DHT22;8595;52.542;11.974;2023-02-28T09:59:39;13.90;99.90
16958;DHT22;8595;52.542;11.974;2023-02-28T10:02:17;13.70;99.90
16958;DHT22;8595;52.542;11.974;2023-02-28T10:04:50;13.90;99.90
16958;DHT22;8595;52.542;11.974;2023-02-28T10:07:30;14.20;99.90
16958;DHT22;8595;52.542;11.974;2023-02-28T10:10:04;14.10;99.90
16958;DHT22;8595;52.542;11.974;2023-02-28T10:12:36;14.50;99.90
16958;DHT22;8595;52.542;11.974;2023-02-28T10:15:07;14.80;99.90
16958;DHT22;8595;52.542;11.974;2023-02-28T10:17:42;14.50;99.90
16958;DHT22;8595;52.542;11.974;2023-02-28T10:20:13;14.50;99.90
16958;DHT22;8595;52.542;11.974;2023-02-28T10:22:57;14.60;99.40
16958;DHT22;8595;52.542;11.974;2023-02-28T10:25:26;14.00;98.80
16958;DHT22;8595;52.542;11.974;2023-02-28T10:28:01;13.70;99.90
16958;DHT22;8595;52.542;11.974;2023-02-28T10:30:28;14.00;98.90
16958;DHT22;8595;52.542;11.974;2023-02-28T10:32:55;14.10;98.90
16958;DHT22;8595;52.542;11.974;2023-02-28T10:35:24;14.50;97.30
16958;DHT22;8595;52.542;11.974;2023-02-28T10:37:54;14.90;95.40
16958;DHT22;8595;52.542;11.974;2023-02-28T10:40:32;15.30;93.40
16958;DHT22;8595;52.542;11.974;2023-02-28T10:43:02;15.30;92.60
16958;DHT22;8595;52.542;11.974;2023-02-28T10:45:31;15.50;92.10
16958;DHT22;8595;52.542;11.974;2023-02-28T10:48:01;15.90;92.20
16958;DHT22;8595;52.542;11.974;2023-02-28T10:50:35;16.10;91.50
16958;DHT22;8595;52.542;11.974;2023-02-28T10:53:13;16.20;91.50
16958;DHT22;8595;52.542;11.974;2023-02-28T10:55:41;16.50;90.40
16958;DHT22;8595;52.542;11.974;2023-02-28T10:58:21;16.50;87.90
16958;DHT22;8595;52.542;11.974;2023-02-28T11:00:48;16.00;88.00
16958;DHT22;8595;52.542;11.974;2023-02-28T11:03:25;15.90;88.00
16958;DHT22;8595;52.542;11.974;2023-02-28T11:05:53;16.10;85.90
16958;DHT22;8595;52.542;11.974;2023-02-28T11:08:20;15.90;85.90
16958;DHT22;8595;52.542;11.974;2023-02-28T11:10:48;15.90;85.30
16958;DHT22;8595;52.542;11.974;2023-02-28T11:13:21;16.10;84.40
16958;DHT22;8595;52.542;11.974;2023-02-28T11:15:52;15.60;84.90
16958;DHT22;8595;52.542;11.974;2023-02-28T11:18:24;15.50;86.10
16958;DHT22;8595;52.542;11.974;2023-02-28T11:20:57;15.40;85.40
16958;DHT22;8595;52.542;11.974;2023-02-28T11:23:25;15.50;83.20
16958;DHT22;8595;52.542;11.974;2023-02-28T11:25:56;15.00;82.90
16958;DHT22;8595;52.542;11.974;2023-02-28T11:28:26;15.00;83.00
16958;DHT22;8595;52.542;11.974;2023-02-28T11:31:05;15.50;83.00
16958;DHT22;8595;52.542;11.974;2023-02-28T11:33:41;15.30;83.80
16958;DHT22;8595;52.542;11.974;2023-02-28T11:36:12;15.60;89.50
16958;DHT22;8595;52.542;11.974;2023-02-28T11:38:40;15.80;84.90
16958;DHT22;8595;52.542;11.974;2023-02-28T11:41:24;15.70;82.70
16958;DHT22;8595;52.542;11.974;2023-02-28T11:44:05;15.50;86.20
16958;DHT22;8595;52.542;11.974;2023-02-28T11:46:36;15.70;85.90
16958;DHT22;8595;52.542;11.974;2023-02-28T11:49:15;15.40;81.80
16958;DHT22;8595;52.542;11.974;2023-02-28T11:51:53;15.20;82.70
16958;DHT22;8595;52.542;11.974;2023-02-28T11:54:42;15.70;84.10
16958;DHT22;8595;52.542;11.974;2023-02-28T11:57:35;16.00;80.70
16958;DHT22;8595;52.542;11.974;2023-02-28T12:00:15;16.20;80.60
16958;DHT22;8595;52.542;11.974;2023-02-28T12:02:54;15.70;84.90
16958;DHT22;8595;52.542;11.974;2023-02-28T12:05:29;15.60;86.40
16958;DHT22;8595;52.542;11.974;2023-02-28T12:08:06;16.00;79.70
16958;DHT22;8595;52.542;11.974;2023-02-28T12:10:42;16.20;80.50
16958;DHT22;8595;52.542;11.974;2023-02-28T12:13:18;16.40;80.80
16958;DHT22;8595;52.542;11.974;2023-02-28T12:16:18;16.40;79.40
16958;DHT22;8595;52.542;11.974;2023-02-28T12:19:02;16.70;78.20
16958;DHT22;8595;52.542;11.974;2023-02-28T12:21:50;16.70;78.20
16958;DHT22;8595;52.542;11.974;2023-02-28T12:27:23;17.20;77.20
16958;DHT22;8595;52.542;11.974;2023-02-28T12:29:55;16.40;76.10
16958;DHT22;8595;52.542;11.974;2023-02-28T12:32:26;15.50;75.30
16958;DHT22;8595;52.542;11.974;2023-02-28T12:34:56;15.30;80.20
16958;DHT22;8595;52.542;11.974;2023-02-28T12:37:27;15.60;79.10
16958;DHT22;8595;52.542;11.974;2023-02-28T12:40:00;16.00;76.60
16958;DHT22;8595;52.542;11.974;2023-02-28T12:42:39;15.90;76.70
16958;DHT22;8595;52.542;11.974;2023-02-28T12:45:12;15.90;80.10
16958;DHT22;8595;52.542;11.974;2023-02-28T12:47:41;16.40;77.60
16958;DHT22;8595;52.542;11.974;2023-02-28T12:50:10;16.90;78.40
16958;DHT22;8595;52.542;11.974;2023-02-28T12:52:48;17.20;76.60
16958;DHT22;8595;52.542;11.974;2023-02-28T12:55:29;17.20;77.70
16958;DHT22;8595;52.542;11.974;2023-02-28T12:58:05;17.30;76.20
16958;DHT22;8595;52.542;11.974;2023-02-28T13:00:36;17.50;76.30
16958;DHT22;8595;52.542;11.974;2023-02-28T13:03:27;17.50;75.60
16958;DHT22;8595;52.542;11.974;2023-02-28T13:06:20;17.10;74.70
16958;DHT22;8595;52.542;11.974;2023-02-28T13:09:08;16.40;74.50
16958;DHT22;8595;52.542;11.974;2023-02-28T13:11:42;16.80;76.20
16958;DHT22;8595;52.542;11.974;2023-02-28T13:14:22;16.50;75.20
16958;DHT22;8595;52.542;11.974;2023-02-28T13:17:01;16.10;74.40
16958;DHT22;8595;52.542;11.974;2023-02-28T13:19:37;16.40;75.40
16958;DHT22;8595;52.542;11.974;2023-02-28T13:22:04;16.50;75.30
16958;DHT22;8595;52.542;11.974;2023-02-28T13:24:43;16.20;73.90
16958;DHT22;8595;52.542;11.974;2023-02-28T13:27:39;16.10;77.90
16958;DHT22;8595;52.542;11.974;2023-02-28T13:33:28;16.70;74.40
16958;DHT22;8595;52.542;11.974;2023-02-28T13:36:10;17.00;75.40
16958;DHT22;8595;52.542;11.974;2023-02-28T13:38:41;17.30;78.30
16958;DHT22;8595;52.542;11.974;2023-02-28T13:41:41;17.40;75.10
16958;DHT22;8595;52.542;11.974;2023-02-28T13:44:10;17.40;76.00
16958;DHT22;8595;52.542;11.974;2023-02-28T13:49:42;17.40;75.60
16958;DHT22;8595;52.542;11.974;2023-02-28T13:52:15;17.30;73.80
16958;DHT22;8595;52.542;11.974;2023-02-28T13:54:57;17.40;78.10
16958;DHT22;8595;52.542;11.974;2023-02-28T13:57:35;17.10;76.00
16958;DHT22;8595;52.542;11.974;2023-02-28T14:00:15;17.10;76.20
16958;DHT22;8595;52.542;11.974;2023-02-28T14:03:06;17.60;76.50
16958;DHT22;8595;52.542;11.974;2023-02-28T14:05:36;17.60;72.90
16958;DHT22;8595;52.542;11.974;2023-02-28T14:08:10;17.60;76.20
16958;DHT22;8595;52.542;11.974;2023-02-28T14:10:42;17.50;73.50
16958;DHT22;8595;52.542;11.974;2023-02-28T14:13:39;17.50;74.10
16958;DHT22;8595;52.542;11.974;2023-02-28T14:16:13;17.80;72.70
16958;DHT22;8595;52.542;11.974;2023-02-28T14:18:47;17.70;71.50
16958;DHT22;8595;52.542;11.974;2023-02-28T14:21:21;17.40;73.60
16958;DHT22;8595;52.542;11.974;2023-02-28T14:27:11;17.30;75.20
16958;DHT22;8595;52.542;11.974;2023-02-28T14:32:47;17.10;72.20
16958;DHT22;8595;52.542;11.974;2023-02-28T14:35:36;17.50;71.80
16958;DHT22;8595;52.542;11.974;2023-02-28T14:38:14;17.40;72.40
16958;DHT22;8595;52.542;11.974;2023-02-28T14:40:44;17.10;71.50
16958;DHT22;8595;52.542;11.974;2023-02-28T14:43:20;17.10;74.00
16958;DHT22;8595;52.542;11.974;2023-02-28T14:45:50;17.00;70.30
16958;DHT22;8595;52.542;11.974;2023-02-28T14:48:19;16.60;71.80
16958;DHT22;8595;52.542;11.974;2023-02-28T14:50:49;16.60;73.50
16958;DHT22;8595;52.542;11.974;2023-02-28T14:53:19;16.80;72.60
16958;DHT22;8595;52.542;11.974;2023-02-28T14:55:47;17.00;74.10
16958;DHT22;8595;52.542;11.974;2023-02-28T14:58:23;16.70;72.20
16958;DHT22;8595;52.542;11.974;2023-02-28T15:00:52;17.10;72.40
16958;DHT22;8595;52.542;11.974;2023-02-28T15:03:22;16.90;74.60
16958;DHT22;8595;52.542;11.974;2023-02-28T15:05:54;16.80;72.20
16958;DHT22;8595;52.542;11.974;2023-02-28T15:08:21;16.70;72.70
16958;DHT22;8595;52.542;11.974;2023-02-28T15:10:52;17.00;75.30
16958;DHT22;8595;52.542;11.974;2023-02-28T15:13:20;16.40;71.40
16958;DHT22;8595;52.542;11.974;2023-02-28T15:15:51;16.20;74.70
16958;DHT22;8595;52.542;11.974;2023-02-28T15:18:28;15.60;71.80
16958;DHT22;8595;52.542;11.974;2023-02-28T15:21:05;15.80;72.80
16958;DHT22;8595;52.542;11.974;2023-02-28T15:23:34;15.70;73.40
16958;DHT22;8595;52.542;11.974;2023-02-28T15:26:04;15.70;78.00
16958;DHT22;8595;52.542;11.974;2023-02-28T15:28:31;16.10;74.20
16958;DHT22;8595;52.542;11.974;2023-02-28T15:31:01;15.90;71.80
16958;DHT22;8595;52.542;11.974;2023-02-28T15:33:31;15.50;73.20
16958;DHT22;8595;52.542;11.974;2023-02-28T15:36:10;14.90;75.20
16958;DHT22;8595;52.542;11.974;2023-02-28T15:38:39;14.50;75.70
16958;DHT22;8595;52.542;11.974;2023-02-28T15:41:23;14.30;75.50
16958;DHT22;8595;52.542;11.974;2023-02-28T15:44:24;13.50;77.50
16958;DHT22;8595;52.542;11.974;2023-02-28T15:46:58;13.00;79.70
16958;DHT22;8595;52.542;11.974;2023-02-28T15:49:26;12.40;77.70
16958;DHT22;8595;52.542;11.974;2023-02-28T15:51:56;11.50;79.70
16958;DHT22;8595;52.542;11.974;2023-02-28T15:54:28;10.40;81.80
16958;DHT22;8595;52.542;11.974;2023-02-28T15:57:03;10.20;85.30
16958;DHT22;8595;52.542;11.974;2023-02-28T15:59:32;10.00;85.90
16958;DHT22;8595;52.542;11.974;2023-02-28T16:02:11;9.50;90.00
16958;DHT22;8595;52.542;11.974;2023-02-28T16:07:33;9.30;89.70
16958;DHT22;8595;52.542;11.974;2023-02-28T16:10:02;8.90;90.40
16958;DHT22;8595;52.542;11.974;2023-02-28T16:12:32;8.80;91.30
16958;DHT22;8595;52.542;11.974;2023-02-28T16:15:17;8.60;91.80
16958;DHT22;8595;52.542;11.974;2023-02-28T16:17:44;8.50;91.70
16958;DHT22;8595;52.542;11.974;2023-02-28T16:20:14;8.40;92.10
16958;DHT22;8595;52.542;11.974;2023-02-28T16:22:43;8.30;94.40